createdAt,value
2023-11-15T00:00:54.385Z,45.7
2023-11-15T00:01:56.262Z,45.7
2023-11-15T00:02:58.330Z,45.4
2023-11-15T00:04:00.421Z,45.7
2023-11-15T00:05:01.453Z,45.8
2023-11-15T00:06:02.693Z,45.5
2023-11-15T00:07:05.207Z,45.9
2023-11-15T00:08:09.699Z,45.7
2023-11-15T00:09:12.330Z,45.6
2023-11-15T00:10:15.786Z,45.7
2023-11-15T00:11:17.659Z,46.3
2023-11-15T00:12:19.110Z,46.5
2023-11-15T00:13:25.078Z,46.6
2023-11-15T00:14:27.321Z,46.7
2023-11-15T00:15:32.327Z,46.9
2023-11-15T00:16:34.126Z,46.9
2023-11-15T00:17:38.926Z,46.9
2023-11-15T00:18:40.328Z,47.1
2023-11-15T00:19:44.808Z,47.1
2023-11-15T00:20:47.236Z,47.3
2023-11-15T00:21:49.538Z,47.5
2023-11-15T00:22:51.090Z,47.3
2023-11-15T00:23:53.559Z,47.7
2023-11-15T00:24:56.463Z,48.2
2023-11-15T00:25:57.256Z,48.2
2023-11-15T00:26:58.154Z,48
2023-11-15T00:27:59.293Z,48.5
2023-11-15T00:29:00.066Z,49
2023-11-15T00:30:01.564Z,49.5
2023-11-15T00:31:04.252Z,50
2023-11-15T00:32:05.071Z,50.3
2023-11-15T00:33:09.597Z,50.6
2023-11-15T00:34:12.369Z,51.1
2023-11-15T00:35:15.964Z,51.3
2023-11-15T00:36:18.378Z,51.3
2023-11-15T00:37:21.562Z,51.3
2023-11-15T00:38:23.529Z,51.7
2023-11-15T00:39:26.548Z,51.3
2023-11-15T00:40:30.772Z,51.2
2023-11-15T00:41:32.098Z,51
2023-11-15T00:42:34.423Z,51
2023-11-15T00:43:35.299Z,51.1
2023-11-15T00:44:37.168Z,51.1
2023-11-15T00:45:45.057Z,50.8
2023-11-15T00:46:46.506Z,50.7
2023-11-15T00:47:48.321Z,51
2023-11-15T00:48:49.397Z,51.2
2023-11-15T00:49:53.350Z,50.5
2023-11-15T00:50:54.268Z,51
2023-11-15T00:51:56.183Z,50.9
2023-11-15T00:52:57.472Z,51.1
2023-11-15T00:53:59.324Z,51.4
2023-11-15T00:55:01.187Z,50.7
2023-11-15T00:56:03.475Z,51.5
2023-11-15T00:57:10.503Z,51.5
2023-11-15T00:58:14.065Z,51.4
2023-11-15T00:59:17.251Z,50.8
2023-11-15T01:00:21.345Z,50.6
2023-11-15T01:01:23.139Z,50.7
2023-11-15T01:02:27.278Z,50.6
2023-11-15T01:03:28.783Z,50.6
2023-11-15T01:04:34.816Z,50.5
2023-11-15T01:05:36.263Z,50.7
2023-11-15T01:06:37.062Z,51
2023-11-15T01:07:38.051Z,51.4
2023-11-15T01:08:39.405Z,51.6
2023-11-15T01:09:40.070Z,51.7
2023-11-15T01:10:41.163Z,51.5
2023-11-15T01:11:42.370Z,51.5
2023-11-15T01:12:46.796Z,51.8
2023-11-15T01:13:49.739Z,51.8
2023-11-15T01:14:51.367Z,51.9
2023-11-15T01:15:52.796Z,52.2
2023-11-15T01:16:54.402Z,52.8
2023-11-15T01:17:55.390Z,53.2
2023-11-15T01:18:56.279Z,53.2
2023-11-15T01:19:58.262Z,53.4
2023-11-15T01:20:59.267Z,53.4
2023-11-15T01:22:00.394Z,53.1
2023-11-15T01:23:01.348Z,53.2
2023-11-15T01:24:02.339Z,53.5
2023-11-15T01:25:06.734Z,52.9
2023-11-15T01:26:10.466Z,53.2
2023-11-15T01:27:11.257Z,53
2023-11-15T01:28:14.626Z,53.6
2023-11-15T01:29:17.124Z,53.6
2023-11-15T01:30:19.084Z,53.9
2023-11-15T01:31:23.799Z,54
2023-11-15T01:32:26.526Z,53.8
2023-11-15T01:33:32.747Z,54.2
2023-11-15T01:34:35.124Z,54.1
2023-11-15T01:35:37.409Z,54
2023-11-15T01:36:38.168Z,54
2023-11-15T01:37:41.270Z,53.8
2023-11-15T01:38:43.423Z,53.8
2023-11-15T01:39:48.087Z,53.6
2023-11-15T01:40:51.314Z,53.2
2023-11-15T01:41:52.390Z,53
2023-11-15T01:42:53.075Z,52.3
2023-11-15T01:43:55.649Z,52.5
2023-11-15T01:44:57.540Z,52.3
2023-11-15T01:46:02.566Z,52.3
2023-11-15T01:47:04.300Z,52.2
2023-11-15T01:48:07.628Z,52
2023-11-15T01:49:08.285Z,51.8
2023-11-15T01:50:09.652Z,51.8
2023-11-15T01:51:11.404Z,51.8
2023-11-15T01:52:13.228Z,51.6
2023-11-15T01:53:16.822Z,51.3
2023-11-15T01:54:20.990Z,51.2
2023-11-15T01:55:23.130Z,50.9
2023-11-15T01:56:28.760Z,50.9
2023-11-15T01:57:40.237Z,50.8
2023-11-15T01:58:42.318Z,50.8
2023-11-15T01:59:44.642Z,50.8
2023-11-15T02:00:48.850Z,50.8
2023-11-15T02:01:53.469Z,50.6
2023-11-15T02:02:56.519Z,50.7
2023-11-15T02:03:58.517Z,50.8
2023-11-15T02:04:59.282Z,50.7
2023-11-15T02:06:00.212Z,50.7
2023-11-15T02:07:11.145Z,50.5
2023-11-15T02:08:16.561Z,50.6
2023-11-15T02:09:18.324Z,50.6
2023-11-15T02:10:19.438Z,50.8
2023-11-15T02:11:21.655Z,51
2023-11-15T02:12:27.713Z,51.1
2023-11-15T02:13:31.512Z,51
2023-11-15T02:14:34.431Z,51.2
2023-11-15T02:15:35.419Z,51.4
2023-11-15T02:16:37.428Z,51.7
2023-11-15T02:17:40.826Z,51.9
2023-11-15T02:18:43.661Z,52
2023-11-15T02:19:45.235Z,52
2023-11-15T02:20:46.950Z,51.8
2023-11-15T02:21:51.887Z,51.7
2023-11-15T02:22:57.188Z,52
2023-11-15T02:24:00.878Z,52
2023-11-15T02:25:03.136Z,52.5
2023-11-15T02:26:08.415Z,52.9
2023-11-15T02:27:14.079Z,53.5
2023-11-15T02:28:18.636Z,53.8
2023-11-15T02:29:28.195Z,53.6
2023-11-15T02:30:30.375Z,53.9
2023-11-15T02:31:34.191Z,53.8
2023-11-15T02:32:38.419Z,53.7
2023-11-15T02:36:54.246Z,54
2023-11-15T02:37:56.137Z,54.1
2023-11-15T02:39:02.396Z,54.1
2023-11-15T02:40:05.365Z,53.9
2023-11-15T02:41:09.508Z,53.9
2023-11-15T02:42:14.767Z,54
2023-11-15T02:43:16.616Z,54.2
2023-11-15T02:44:21.522Z,54.4
2023-11-15T02:45:25.479Z,53.8
2023-11-15T02:46:30.678Z,54.3
2023-11-15T02:47:32.399Z,54.4
2023-11-15T02:48:33.539Z,54.4
2023-11-15T02:49:38.285Z,54.3
2023-11-15T02:50:42.760Z,54.1
2023-11-15T02:51:49.370Z,53.9
2023-11-15T02:52:53.289Z,53.8
2023-11-15T02:53:58.188Z,53.6
2023-11-15T02:55:03.158Z,53.4
2023-11-15T02:56:04.115Z,53.3
2023-11-15T02:57:09.622Z,53.3
2023-11-15T02:58:12.391Z,53.3
2023-11-15T02:59:15.258Z,53.4
2023-11-15T03:00:20.004Z,53.5
2023-11-15T03:01:27.386Z,53.7
2023-11-15T03:02:32.811Z,54.2
2023-11-15T03:03:45.083Z,54.3
2023-11-15T03:04:50.375Z,54.3
2023-11-15T03:05:53.813Z,54.3
2023-11-15T03:06:58.006Z,54.3
2023-11-15T03:08:00.051Z,54.3
2023-11-15T03:09:05.392Z,54.4
2023-11-15T03:10:13.338Z,54.5
2023-11-15T03:11:16.726Z,54.6
2023-11-15T03:12:26.214Z,54.6
2023-11-15T03:13:31.314Z,54.5
2023-11-15T03:14:35.144Z,54.4
2023-11-15T03:15:39.594Z,54.3
2023-11-15T03:16:41.416Z,54.1
2023-11-15T03:17:45.787Z,53.9
2023-11-15T03:18:47.446Z,53.8
2023-11-15T03:19:48.110Z,53.7
2023-11-15T03:20:54.131Z,53.6
2023-11-15T03:21:56.382Z,53.5
2023-11-15T03:23:01.625Z,53
2023-11-15T03:24:07.320Z,53.7
2023-11-15T03:25:09.614Z,53.9
2023-11-15T03:26:11.161Z,54.1
2023-11-15T03:27:14.345Z,54.3
2023-11-15T03:28:18.997Z,54.6
2023-11-15T03:29:20.164Z,54.7
2023-11-15T03:30:25.237Z,54.9
2023-11-15T03:31:27.201Z,55
2023-11-15T03:32:37.348Z,54.9
2023-11-15T03:33:45.516Z,54.7
2023-11-15T03:34:49.671Z,54.9
2023-11-15T03:35:52.287Z,54.8
2023-11-15T03:36:54.338Z,54.9
2023-11-15T03:37:58.794Z,55.2
2023-11-15T03:39:06.632Z,55.1
2023-11-15T03:40:09.789Z,55.1
2023-11-15T03:41:13.400Z,55.2
2023-11-15T03:42:14.352Z,54.9
2023-11-15T03:43:19.738Z,55.6
2023-11-15T03:44:24.512Z,55.8
2023-11-15T03:45:28.787Z,55.8
2023-11-15T03:46:31.177Z,56
2023-11-15T03:47:36.423Z,56.1
2023-11-15T03:48:41.588Z,56.3
2023-11-15T03:49:43.732Z,56.4
2023-11-15T03:50:45.366Z,56.3
2023-11-15T03:51:47.681Z,56.7
2023-11-15T03:52:49.623Z,57.1
2023-11-15T03:53:57.046Z,56.9
2023-11-15T03:55:03.279Z,57.3
2023-11-15T03:56:08.624Z,57.5
2023-11-15T03:57:13.400Z,57.5
2023-11-15T03:58:18.163Z,56.6
2023-11-15T03:59:24.795Z,56.9
2023-11-15T04:00:30.560Z,56.9
2023-11-15T04:01:49.044Z,57.2
2023-11-15T04:02:45.669Z,57.4
2023-11-15T04:03:50.667Z,57.5
2023-11-15T04:05:00.516Z,57.7
2023-11-15T04:06:01.457Z,57.9
2023-11-15T04:07:03.606Z,58
2023-11-15T04:08:05.505Z,58.2
2023-11-15T04:09:06.267Z,58.4
2023-11-15T04:10:08.546Z,58.2
2023-11-15T04:11:12.707Z,58.2
2023-11-15T04:12:14.268Z,58.2
2023-11-15T04:13:15.629Z,58.4
2023-11-15T04:14:17.204Z,58.6
2023-11-15T04:15:23.170Z,58.8
2023-11-15T04:16:25.324Z,58.6
2023-11-15T04:17:26.694Z,58.5
2023-11-15T04:18:28.511Z,58.4
2023-11-15T04:19:29.933Z,58.5
2023-11-15T04:20:31.378Z,58.3
2023-11-15T04:21:34.515Z,58.4
2023-11-15T04:22:35.370Z,58.5
2023-11-15T04:23:36.447Z,58.6
2023-11-15T04:24:37.153Z,58.6
2023-11-15T04:25:40.310Z,58
2023-11-15T04:26:42.686Z,58.2
2023-11-15T04:27:44.303Z,58.1
2023-11-15T04:28:45.344Z,58.2
2023-11-15T04:29:51.273Z,58.1
2023-11-15T04:30:57.943Z,57.9
2023-11-15T04:31:59.356Z,57.5
2023-11-15T04:33:07.036Z,57.1
2023-11-15T04:34:12.425Z,56.7
2023-11-15T04:35:13.485Z,56.6
2023-11-15T04:36:15.610Z,56.7
2023-11-15T04:37:17.176Z,56.4
2023-11-15T04:38:30.675Z,56.1
2023-11-15T04:39:32.188Z,55.5
2023-11-15T04:40:33.175Z,55.4
2023-11-15T04:41:36.499Z,55.3
2023-11-15T04:42:37.365Z,55.3
2023-11-15T04:43:41.569Z,55.1
2023-11-15T04:44:46.310Z,55
2023-11-15T04:45:49.839Z,54.6
2023-11-15T04:46:51.622Z,54.3
2023-11-15T04:47:53.459Z,54.4
2023-11-15T04:48:55.554Z,54.1
2023-11-15T04:49:57.497Z,53.8
2023-11-15T04:50:59.626Z,53.6
2023-11-15T04:52:01.298Z,53.6
2023-11-15T04:53:03.759Z,53.8
2023-11-15T04:54:09.314Z,53.4
2023-11-15T04:55:10.987Z,53.3
2023-11-15T04:56:15.318Z,53.7
2023-11-15T04:57:16.186Z,53.6
2023-11-15T04:58:17.409Z,53.7
2023-11-15T04:59:19.307Z,53.6
2023-11-15T05:00:21.323Z,54
2023-11-15T05:01:23.640Z,54.5
2023-11-15T05:02:26.816Z,54.6
2023-11-15T05:03:32.350Z,54.7
2023-11-15T05:04:33.447Z,54.8
2023-11-15T05:05:38.104Z,54.6
2023-11-15T05:06:40.297Z,55
2023-11-15T05:07:42.200Z,55
2023-11-15T05:08:43.984Z,55
2023-11-15T05:09:45.176Z,55.1
2023-11-15T05:10:46.430Z,55.1
2023-11-15T05:11:47.262Z,55.3
2023-11-15T05:12:50.522Z,55.6
2023-11-15T05:13:51.174Z,55.8
2023-11-15T05:14:52.348Z,55.3
2023-11-15T05:15:54.451Z,55.8
2023-11-15T05:17:01.311Z,56.3
2023-11-15T05:18:02.652Z,56.4
2023-11-15T05:19:04.187Z,56.5
2023-11-15T05:20:05.333Z,56.5
2023-11-15T05:21:10.236Z,56.7
2023-11-15T05:22:14.682Z,57.1
2023-11-15T05:23:16.448Z,57
2023-11-15T05:24:18.346Z,57.2
2023-11-15T05:25:20.728Z,57.6
2023-11-15T05:26:22.636Z,57.9
2023-11-15T05:27:25.454Z,57.8
2023-11-15T05:28:27.796Z,58
2023-11-15T05:29:32.239Z,58.1
2023-11-15T05:30:39.094Z,58
2023-11-15T05:31:41.485Z,57.8
2023-11-15T05:32:44.312Z,57.8
2023-11-15T05:33:45.220Z,57.2
2023-11-15T05:34:46.453Z,56.4
2023-11-15T05:35:48.347Z,56.2
2023-11-15T05:36:50.510Z,56.9
2023-11-15T05:37:55.152Z,57.1
2023-11-15T05:38:58.869Z,57.4
2023-11-15T05:40:05.997Z,57.9
2023-11-15T05:41:07.200Z,58.2
2023-11-15T05:42:11.798Z,58.2
2023-11-15T05:43:13.233Z,58.3
2023-11-15T05:44:15.679Z,58.4
2023-11-15T05:45:17.186Z,58.6
2023-11-15T05:46:18.480Z,58.9
2023-11-15T05:47:19.414Z,59.2
2023-11-15T05:48:23.149Z,59.3
2023-11-15T05:49:24.216Z,59
2023-11-15T05:50:25.464Z,59.1
2023-11-15T05:51:27.318Z,59.1
2023-11-15T05:52:29.716Z,59.4
2023-11-15T05:53:32.859Z,59.6
2023-11-15T05:54:34.286Z,59.8
2023-11-15T05:55:35.264Z,60
2023-11-15T05:56:37.249Z,60.1
2023-11-15T05:57:39.619Z,60
2023-11-15T05:58:44.226Z,59.9
2023-11-15T05:59:46.760Z,59.8
2023-11-15T06:00:50.972Z,59.7
2023-11-15T06:01:53.628Z,59.2
2023-11-15T06:02:55.549Z,59
2023-11-15T06:03:59.768Z,58.6
2023-11-15T06:05:01.359Z,58.4
2023-11-15T06:06:02.951Z,58.2
2023-11-15T06:07:07.294Z,58.3
2023-11-15T06:08:10.546Z,58.2
2023-11-15T06:09:11.393Z,58.3
2023-11-15T06:10:12.564Z,57.9
2023-11-15T06:11:14.837Z,58.1
2023-11-15T06:12:17.760Z,58
2023-11-15T06:13:25.043Z,57.8
2023-11-15T06:14:31.494Z,57.9
2023-11-15T06:15:32.226Z,58.1
2023-11-15T06:16:37.598Z,58.1
2023-11-15T06:17:40.775Z,58
2023-11-15T06:18:44.255Z,58
2023-11-15T06:19:49.446Z,57.8
2023-11-15T06:20:49.890Z,57.9
2023-11-15T06:21:52.649Z,57.9
2023-11-15T06:22:53.371Z,58
2023-11-15T06:23:54.562Z,58.2
2023-11-15T06:24:57.712Z,58.1
2023-11-15T06:26:01.368Z,58.1
2023-11-15T06:27:06.070Z,57.9
2023-11-15T06:28:07.375Z,57.9
2023-11-15T06:29:10.535Z,57.6
2023-11-15T06:30:13.982Z,57.4
2023-11-15T06:31:16.265Z,57.6
2023-11-15T06:32:21.486Z,57.6
2023-11-15T06:33:24.659Z,57.3
2023-11-15T06:34:30.589Z,57.1
2023-11-15T06:35:35.119Z,57.1
2023-11-15T06:36:40.961Z,57.2
2023-11-15T06:37:42.746Z,57
2023-11-15T06:38:47.780Z,56.8
2023-11-15T06:39:59.769Z,56.9
2023-11-15T06:41:02.289Z,56.8
2023-11-15T06:42:09.946Z,57
2023-11-15T06:43:19.102Z,57.1
2023-11-15T06:44:22.879Z,57.1
2023-11-15T06:45:25.282Z,57.1
2023-11-15T06:46:30.850Z,57.1
2023-11-15T06:47:34.422Z,57.1
2023-11-15T06:48:39.594Z,57.3
2023-11-15T06:49:41.234Z,57.4
2023-11-15T06:50:48.494Z,57.6
2023-11-15T06:52:07.181Z,57.7
2023-11-15T06:53:10.423Z,58.3
2023-11-15T06:54:12.504Z,58.6
2023-11-15T06:55:13.443Z,58.6
2023-11-15T06:56:18.078Z,58.5
2023-11-15T06:57:19.359Z,58.4
2023-11-15T06:58:25.184Z,58.3
2023-11-15T06:59:32.538Z,58.2
2023-11-15T07:00:35.753Z,57.8
2023-11-15T07:01:38.445Z,57.4
2023-11-15T07:02:41.965Z,57.4
2023-11-15T07:03:44.447Z,57.4
2023-11-15T07:04:46.286Z,57.5
2023-11-15T07:05:50.393Z,57.3
2023-11-15T07:06:52.459Z,57.3
2023-11-15T07:07:57.352Z,57.3
2023-11-15T07:08:58.488Z,57.2
2023-11-15T07:09:59.847Z,57.2
2023-11-15T07:11:01.601Z,57.2
2023-11-15T07:12:06.232Z,57.2
2023-11-15T07:13:08.626Z,57.2
2023-11-15T07:14:12.456Z,57.2
2023-11-15T07:15:14.845Z,57.2
2023-11-15T07:16:17.928Z,57.2
2023-11-15T07:17:20.385Z,57.1
2023-11-15T07:18:23.692Z,57.1
2023-11-15T07:19:24.871Z,57.5
2023-11-15T07:20:29.705Z,57.6
2023-11-15T07:21:33.106Z,57.6
2023-11-15T07:22:37.209Z,57.4
2023-11-15T07:23:38.625Z,57.3
2023-11-15T07:24:44.200Z,57.3
2023-11-15T07:25:45.315Z,57.3
2023-11-15T07:26:47.874Z,56.9
2023-11-15T07:27:52.390Z,57
2023-11-15T07:28:53.804Z,57
2023-11-15T07:29:58.098Z,56.9
2023-11-15T07:30:58.591Z,56.8
2023-11-15T07:31:59.460Z,56.6
2023-11-15T07:33:06.724Z,56.8
2023-11-15T07:34:09.036Z,56.6
2023-11-15T07:35:11.696Z,56.3
2023-11-15T07:36:16.467Z,56.2
2023-11-15T07:37:18.469Z,56.2
2023-11-15T07:38:22.042Z,56.2
2023-11-15T07:39:24.038Z,56
2023-11-15T07:40:26.577Z,55.5
2023-11-15T07:41:33.818Z,55.3
2023-11-15T07:42:39.073Z,55.4
2023-11-15T07:43:40.464Z,55.6
2023-11-15T07:44:41.273Z,55.6
2023-11-15T07:45:45.530Z,55.6
2023-11-15T07:46:46.327Z,55.7
2023-11-15T07:47:49.088Z,55.9
2023-11-15T07:48:51.715Z,56
2023-11-15T07:49:52.743Z,55.7
2023-11-15T07:50:57.916Z,55.3
2023-11-15T07:52:03.326Z,55.4
2023-11-15T07:53:08.766Z,56
2023-11-15T07:54:14.194Z,56
2023-11-15T07:55:23.243Z,55.9
2023-11-15T07:56:25.244Z,55.4
2023-11-15T07:57:36.147Z,54.6
2023-11-15T07:58:38.456Z,55.1
2023-11-15T07:59:40.650Z,55.1
2023-11-15T08:00:41.627Z,55
2023-11-15T08:01:47.926Z,54.9
2023-11-15T08:02:50.273Z,54.8
2023-11-15T08:03:52.789Z,54.9
2023-11-15T08:04:55.003Z,54.7
2023-11-15T08:05:58.932Z,54.3
2023-11-15T08:07:00.596Z,54.2
2023-11-15T08:08:01.464Z,54.2
2023-11-15T08:09:02.671Z,54.1
2023-11-15T08:10:07.508Z,53.7
2023-11-15T08:11:11.425Z,53.6
2023-11-15T08:12:16.597Z,53.3
2023-11-15T08:13:20.434Z,53.5
2023-11-15T08:14:25.294Z,53.3
2023-11-15T08:15:26.756Z,53.6
2023-11-15T08:16:29.847Z,53.6
2023-11-15T08:17:34.603Z,53.6
2023-11-15T08:18:35.553Z,53.5
2023-11-15T08:19:37.305Z,53.4
2023-11-15T08:20:44.548Z,53.6
2023-11-15T08:21:45.666Z,53.8
2023-11-15T08:22:46.529Z,53.9
2023-11-15T08:23:47.804Z,53.7
2023-11-15T08:24:52.222Z,53.7
2023-11-15T08:25:54.541Z,53.5
2023-11-15T08:26:56.856Z,53.6
2023-11-15T08:28:00.312Z,53.9
2023-11-15T08:28:59.347Z,53.9
2023-11-15T08:30:02.851Z,53.8
2023-11-15T08:31:07.460Z,53.4
2023-11-15T08:32:08.402Z,53.7
2023-11-15T08:33:16.025Z,54.1
2023-11-15T08:34:21.017Z,54.4
2023-11-15T08:35:19.410Z,54.6
2023-11-15T08:36:20.566Z,54.8
2023-11-15T08:37:22.763Z,54.7
2023-11-15T08:38:24.433Z,55
2023-11-15T08:39:29.853Z,54.7
2023-11-15T08:40:31.494Z,54.7
2023-11-15T08:41:34.022Z,54.7
2023-11-15T08:42:35.600Z,54.7
2023-11-15T08:43:37.428Z,54.9
2023-11-15T08:44:40.108Z,54.4
2023-11-15T08:45:52.103Z,54.7
2023-11-15T08:46:54.622Z,54.8
2023-11-15T08:48:03.801Z,54.7
2023-11-15T08:49:05.706Z,54.3
2023-11-15T08:50:06.626Z,53.5
2023-11-15T08:51:07.942Z,53.5
2023-11-15T08:52:09.681Z,53.7
2023-11-15T08:53:18.265Z,53.8
2023-11-15T08:54:19.337Z,53.8
2023-11-15T08:55:23.434Z,53.6
2023-11-15T08:56:24.542Z,53.2
2023-11-15T08:57:29.618Z,52.8
2023-11-15T08:58:30.663Z,52.5
2023-11-15T08:59:31.431Z,52.7
2023-11-15T09:00:33.566Z,52.9
2023-11-15T09:01:35.833Z,53.1
2023-11-15T09:02:38.991Z,53.6
2023-11-15T09:03:44.211Z,53.7
2023-11-15T09:04:45.621Z,52.9
2023-11-15T09:05:46.681Z,53.2
2023-11-15T09:06:47.676Z,53.3
2023-11-15T09:07:52.161Z,53.1
2023-11-15T09:08:53.393Z,52.9
2023-11-15T09:09:54.398Z,52.8
2023-11-15T09:10:55.354Z,52.5
2023-11-15T09:12:00.272Z,52.1
2023-11-15T09:13:01.509Z,52
2023-11-15T09:14:03.612Z,51.1
2023-11-15T09:15:05.893Z,51.2
2023-11-15T09:16:12.144Z,51.4
2023-11-15T09:17:12.652Z,51.2
2023-11-15T09:18:13.683Z,50.9
2023-11-15T09:19:18.274Z,50.7
2023-11-15T09:20:19.847Z,51.1
2023-11-15T09:21:22.423Z,51.1
2023-11-15T09:22:23.455Z,50.5
2023-11-15T09:23:28.397Z,51.5
2023-11-15T09:24:25.707Z,52.2
2023-11-15T09:25:29.360Z,52.2
2023-11-15T09:26:30.353Z,52.3
2023-11-15T09:27:31.661Z,52.5
2023-11-15T09:28:32.696Z,52.4
2023-11-15T09:29:37.363Z,53
2023-11-15T09:30:38.371Z,53.4
2023-11-15T09:31:39.983Z,53.5
2023-11-15T09:32:41.589Z,53.7
2023-11-15T09:33:46.979Z,53.6
2023-11-15T09:34:50.542Z,53.8
2023-11-15T09:35:54.652Z,54.2
2023-11-15T09:36:53.697Z,54.6
2023-11-15T09:37:57.315Z,54.5
2023-11-15T09:38:58.457Z,54.9
2023-11-15T09:39:59.435Z,55.3
2023-11-15T09:41:03.175Z,55.5
2023-11-15T09:42:04.630Z,55.8
2023-11-15T09:43:06.744Z,55.9
2023-11-15T09:44:12.574Z,55.9
2023-11-15T09:45:14.404Z,55.9
2023-11-15T09:46:16.092Z,56.1
2023-11-15T09:47:17.701Z,56.2
2023-11-15T09:48:20.156Z,56.2
2023-11-15T09:49:21.845Z,56.5
2023-11-15T09:50:26.616Z,56.3
2023-11-15T09:51:28.746Z,56.1
2023-11-15T09:52:33.370Z,55.8
2023-11-15T09:53:34.741Z,55.6
2023-11-15T09:54:38.092Z,55
2023-11-15T09:55:38.152Z,54.7
2023-11-15T09:56:42.410Z,54.4
2023-11-15T09:57:43.611Z,54.1
2023-11-15T09:58:44.758Z,53
2023-11-15T09:59:52.760Z,52.5
2023-11-15T10:00:50.975Z,53
2023-11-15T10:01:53.622Z,54.1
2023-11-15T10:02:57.991Z,54
2023-11-15T10:03:59.740Z,54
2023-11-15T10:05:04.219Z,54.4
2023-11-15T10:06:05.865Z,54.4
2023-11-15T10:07:07.439Z,54.4
2023-11-15T10:08:12.367Z,54.2
2023-11-15T10:09:14.427Z,53.9
2023-11-15T10:10:16.653Z,53.8
2023-11-15T10:11:20.386Z,53
2023-11-15T10:12:21.702Z,52.2
2023-11-15T10:13:25.366Z,52.6
2023-11-15T10:14:26.441Z,52.8
2023-11-15T10:15:27.644Z,53.3
2023-11-15T10:16:29.772Z,53.1
2023-11-15T10:17:34.428Z,53.4
2023-11-15T10:18:39.317Z,53.8
2023-11-15T10:19:40.870Z,53.3
2023-11-15T10:20:44.058Z,52.6
2023-11-15T10:21:46.409Z,52.5
2023-11-15T10:22:59.066Z,52.7
2023-11-15T10:24:05.339Z,52.5
2023-11-15T10:25:07.866Z,52.4
2023-11-15T10:26:10.945Z,52.7
2023-11-15T10:27:24.007Z,52.8
2023-11-15T10:28:28.603Z,52.1
2023-11-15T10:29:33.458Z,52.3
2023-11-15T10:30:34.400Z,52.4
2023-11-15T10:31:35.422Z,52.6
2023-11-15T10:32:37.059Z,52.4
2023-11-15T10:33:41.343Z,52.3
2023-11-15T10:34:44.784Z,51
2023-11-15T10:35:51.330Z,50.7
2023-11-15T10:36:54.131Z,50.6
2023-11-15T10:37:53.975Z,51.1
2023-11-15T10:38:55.661Z,51.3
2023-11-15T10:39:57.707Z,50.9
2023-11-15T10:40:58.502Z,50.7
2023-11-15T10:41:59.750Z,50.5
2023-11-15T10:43:04.304Z,50.5
2023-11-15T10:44:05.640Z,50.3
2023-11-15T10:45:07.846Z,50.5
2023-11-15T10:46:13.519Z,50.7
2023-11-15T10:47:16.293Z,50.9
2023-11-15T10:48:20.616Z,50.5
2023-11-15T10:49:20.982Z,50
2023-11-15T10:50:22.904Z,48.5
2023-11-15T10:51:26.620Z,48.1
2023-11-15T10:52:29.288Z,47
2023-11-15T10:53:33.687Z,46.9
2023-11-15T10:54:39.340Z,46.8
2023-11-15T10:55:45.248Z,46.9
2023-11-15T10:56:58.318Z,47.4
2023-11-15T10:58:04.369Z,46.2
2023-11-15T10:59:09.525Z,45.7
2023-11-15T11:00:15.524Z,46
2023-11-15T11:01:16.668Z,45.9
2023-11-15T11:02:18.969Z,45.5
2023-11-15T11:03:23.193Z,45.9
2023-11-15T11:04:26.298Z,46.1
2023-11-15T11:05:34.222Z,46.7
2023-11-15T11:06:37.316Z,45.8
2023-11-15T11:07:40.042Z,46.2
2023-11-15T11:08:41.822Z,46.5
2023-11-15T11:09:43.850Z,46.1
2023-11-15T11:10:48.304Z,46.5
2023-11-15T11:11:50.744Z,47
2023-11-15T11:12:52.524Z,45.9
2023-11-15T11:13:53.873Z,45.2
2023-11-15T11:14:55.711Z,44.6
2023-11-15T11:15:57.561Z,44.2
2023-11-15T11:16:59.841Z,44
2023-11-15T11:18:03.287Z,44.2
2023-11-15T11:19:07.536Z,44.1
2023-11-15T11:20:11.090Z,43.6
2023-11-15T11:21:16.055Z,42.1
2023-11-15T11:22:23.030Z,42.5
2023-11-15T11:23:24.765Z,42.6
2023-11-15T11:24:25.709Z,42.5
2023-11-15T11:25:29.994Z,42.5
2023-11-15T11:26:32.963Z,43.2
2023-11-15T11:27:34.605Z,43.8
2023-11-15T11:28:35.446Z,43.5
2023-11-15T11:29:36.580Z,43.7
2023-11-15T11:30:38.769Z,43.5
2023-11-15T11:31:39.517Z,43.2
2023-11-15T11:32:44.934Z,42.9
2023-11-15T11:33:49.298Z,43
2023-11-15T11:34:50.928Z,42.5
2023-11-15T11:35:52.756Z,42.1
2023-11-15T11:36:57.338Z,42.3
2023-11-15T11:37:59.176Z,42.4
2023-11-15T11:39:00.585Z,42.6
2023-11-15T11:40:02.768Z,42.8
2023-11-15T11:41:03.896Z,42.5
2023-11-15T11:42:05.545Z,41.8
2023-11-15T11:43:06.673Z,42.6
2023-11-15T11:44:07.794Z,43.2
2023-11-15T11:45:12.366Z,43.4
2023-11-15T11:46:14.958Z,43.7
2023-11-15T11:47:18.550Z,43.1
2023-11-15T11:48:22.276Z,42.9
2023-11-15T11:49:23.434Z,43
2023-11-15T11:50:31.425Z,43
2023-11-15T11:51:33.882Z,43.2
2023-11-15T11:52:35.770Z,43.3
2023-11-15T11:53:37.451Z,43.5
2023-11-15T11:54:39.696Z,43.8
2023-11-15T11:55:40.396Z,43.6
2023-11-15T11:56:42.654Z,43.4
2023-11-15T11:57:43.533Z,43.1
2023-11-15T11:58:44.578Z,42.8
2023-11-15T11:59:45.436Z,42.9
2023-11-15T12:00:53.418Z,43.2
2023-11-15T12:01:55.749Z,42.5
2023-11-15T12:03:03.090Z,42.6
2023-11-15T12:04:00.511Z,42.8
2023-11-15T12:05:01.460Z,42.5
2023-11-15T12:06:02.628Z,42.5
2023-11-15T12:07:03.632Z,42.6
2023-11-15T12:08:05.578Z,42.6
2023-11-15T12:09:07.676Z,42.6
2023-11-15T12:10:08.815Z,43.3
2023-11-15T12:11:12.464Z,42.7
2023-11-15T12:12:13.575Z,42.6
2023-11-15T12:13:14.751Z,43
2023-11-15T12:14:16.748Z,43.2
2023-11-15T12:15:19.759Z,43.3
2023-11-15T12:16:22.844Z,43.2
2023-11-15T12:17:28.369Z,43.4
2023-11-15T12:18:32.835Z,43.4
2023-11-15T12:19:37.641Z,43.6
2023-11-15T12:20:38.539Z,42.9
2023-11-15T12:21:42.753Z,42.3
2023-11-15T12:22:44.456Z,41.7
2023-11-15T12:23:46.751Z,41.8
2023-11-15T12:24:49.004Z,41.8
2023-11-15T12:25:50.653Z,41.7
2023-11-15T12:26:54.706Z,41.9
2023-11-15T12:27:55.902Z,42
2023-11-15T12:28:57.765Z,41.7
2023-11-15T12:29:59.704Z,42.7
2023-11-15T12:31:02.390Z,43.3
2023-11-15T12:32:03.622Z,43.1
2023-11-15T12:33:04.624Z,41.9
2023-11-15T12:34:06.567Z,41.1
2023-11-15T12:35:07.661Z,41.1
2023-11-15T12:36:09.713Z,39.8
2023-11-15T12:37:10.674Z,39.1
2023-11-15T12:38:12.694Z,37.3
2023-11-15T12:39:15.981Z,37
2023-11-15T12:40:17.866Z,36.3
2023-11-15T12:41:20.668Z,35.7
2023-11-15T12:42:22.065Z,35.7
2023-11-15T12:43:25.040Z,35.8
2023-11-15T12:44:26.611Z,36.4
2023-11-15T12:45:27.572Z,36.4
2023-11-15T12:46:30.879Z,36
2023-11-15T12:47:37.785Z,36.2
2023-11-15T12:48:42.375Z,36.1
2023-11-15T12:49:43.584Z,37
2023-11-15T12:50:44.918Z,36.6
2023-11-15T12:51:50.580Z,36.9
2023-11-15T12:52:53.151Z,36.7
2023-11-15T12:53:54.637Z,37
2023-11-15T12:54:58.458Z,37.8
2023-11-15T12:56:02.031Z,38.4
2023-11-15T12:57:06.506Z,38.6
2023-11-15T12:58:07.763Z,39
2023-11-15T12:59:09.707Z,39.2
2023-11-15T13:00:10.715Z,38.7
2023-11-15T13:01:11.823Z,38.5
2023-11-15T13:02:16.878Z,38.2
2023-11-15T13:03:19.942Z,38.2
2023-11-15T13:04:23.016Z,38.3
2023-11-15T13:05:27.771Z,38.6
2023-11-15T13:06:31.356Z,38.6
2023-11-15T13:07:31.574Z,38.2
2023-11-15T13:08:35.569Z,38.3
2023-11-15T13:09:43.700Z,38.6
2023-11-15T13:10:46.728Z,39.1
2023-11-15T13:11:48.753Z,39.3
2023-11-15T13:12:52.036Z,40
2023-11-15T13:14:01.621Z,40.2
2023-11-15T13:15:07.757Z,40
2023-11-15T13:16:11.382Z,40.2
2023-11-15T13:17:15.292Z,39.6
2023-11-15T13:18:17.610Z,39.4
2023-11-15T13:19:18.529Z,39.5
2023-11-15T13:20:19.676Z,39.1
2023-11-15T13:21:22.075Z,39.3
2023-11-15T13:22:23.902Z,39
2023-11-15T13:23:25.475Z,39.2
2023-11-15T13:24:28.408Z,39.2
2023-11-15T13:25:30.784Z,39
2023-11-15T13:26:31.737Z,38.5
2023-11-15T13:27:33.743Z,38.2
2023-11-15T13:28:35.985Z,38.3
2023-11-15T13:29:37.677Z,39
2023-11-15T13:30:39.023Z,39.3
2023-11-15T13:31:40.438Z,39.3
2023-11-15T13:32:44.815Z,38.7
2023-11-15T13:33:47.001Z,38.4
2023-11-15T13:34:50.228Z,38
2023-11-15T13:35:53.815Z,38
2023-11-15T13:36:55.630Z,38.4
2023-11-15T13:37:56.505Z,38.8
2023-11-15T13:38:58.696Z,38.6
2023-11-15T13:40:01.537Z,38.7
2023-11-15T13:41:03.834Z,38.3
2023-11-15T13:42:05.525Z,38.6
2023-11-15T13:43:07.759Z,39.1
2023-11-15T13:44:08.871Z,39.2
2023-11-15T13:45:10.920Z,39
2023-11-15T13:46:12.703Z,38.9
2023-11-15T13:47:14.791Z,38.7
2023-11-15T13:48:18.576Z,39.1
2023-11-15T13:49:20.199Z,38.8
2023-11-15T13:50:21.961Z,39.1
2023-11-15T13:51:24.165Z,38.7
2023-11-15T13:52:25.491Z,38.7
2023-11-15T13:53:26.763Z,38.9
2023-11-15T13:54:29.473Z,39.3
2023-11-15T13:55:30.508Z,39.3
2023-11-15T13:56:32.489Z,39.3
2023-11-15T13:57:33.622Z,39.3
2023-11-15T13:58:34.504Z,39.1
2023-11-15T13:59:35.509Z,38.9
2023-11-15T14:00:37.778Z,39.1
2023-11-15T14:01:38.623Z,39.1
2023-11-15T14:02:43.341Z,38.7
2023-11-15T14:03:50.877Z,38.1
2023-11-15T14:04:51.723Z,38.6
2023-11-15T14:05:55.271Z,38.6
2023-11-15T14:06:58.841Z,38.4
2023-11-15T14:08:05.365Z,38.4
2023-11-15T14:09:13.025Z,38.3